createdAt,value
2022-08-25T00:00:56.220Z,24.40
2022-08-25T00:01:56.201Z,24.40
2022-08-25T00:02:57.681Z,24.40
2022-08-25T00:03:56.197Z,24.39
2022-08-25T00:04:56.174Z,24.40
2022-08-25T00:05:56.241Z,24.39
2022-08-25T00:07:00.612Z,24.39
2022-08-25T00:07:57.133Z,24.39
2022-08-25T00:08:56.124Z,24.39
2022-08-25T00:09:56.113Z,24.40
2022-08-25T00:11:03.176Z,24.40
2022-08-25T00:11:57.095Z,24.39
2022-08-25T00:12:56.084Z,24.39
2022-08-25T00:13:56.054Z,24.39
2022-08-25T00:14:56.045Z,24.39
2022-08-25T00:15:56.065Z,24.39
2022-08-25T00:16:56.085Z,24.39
2022-08-25T00:17:56.015Z,24.39
2022-08-25T00:18:56.786Z,24.39
2022-08-25T00:19:55.987Z,24.39
2022-08-25T00:20:55.997Z,24.37
2022-08-25T00:21:55.970Z,24.39
2022-08-25T00:22:55.965Z,24.39
2022-08-25T00:23:55.948Z,24.39
2022-08-25T00:24:55.929Z,24.37
2022-08-25T00:25:55.929Z,24.37
2022-08-25T00:26:56.724Z,24.39
2022-08-25T00:27:55.910Z,24.37
2022-08-25T00:28:56.385Z,24.37
2022-08-25T00:29:56.871Z,24.37
2022-08-25T00:30:55.962Z,24.37
2022-08-25T00:31:55.857Z,24.35
2022-08-25T00:32:57.575Z,24.35
2022-08-25T00:33:55.830Z,24.37
2022-08-25T00:34:55.824Z,24.35
2022-08-25T00:35:55.833Z,24.37
2022-08-25T00:36:55.802Z,24.35
2022-08-25T00:37:55.788Z,24.37
2022-08-25T00:38:55.775Z,24.37
2022-08-25T00:39:55.796Z,24.35
2022-08-25T00:40:56.505Z,24.35
2022-08-25T00:41:55.737Z,24.37
2022-08-25T00:42:55.734Z,24.35
2022-08-25T00:43:55.725Z,24.34
2022-08-25T00:44:56.436Z,24.35
2022-08-25T00:45:55.725Z,24.35
2022-08-25T00:46:55.687Z,24.35
2022-08-25T00:47:56.675Z,24.35
2022-08-25T00:48:55.660Z,24.34
2022-08-25T00:49:55.646Z,24.34
2022-08-25T00:50:55.660Z,24.32
2022-08-25T00:51:55.622Z,24.34
2022-08-25T00:52:55.617Z,24.34
2022-08-25T00:53:55.600Z,24.34
2022-08-25T00:54:56.387Z,24.32
2022-08-25T00:55:55.617Z,24.32
2022-08-25T00:56:55.587Z,24.34
2022-08-25T00:57:55.570Z,24.34
2022-08-25T00:58:55.551Z,24.32
2022-08-25T00:59:56.298Z,24.32
2022-08-25T01:00:55.531Z,24.31
2022-08-25T01:01:55.574Z,24.31
2022-08-25T01:02:55.645Z,24.32
2022-08-25T01:03:55.483Z,24.30
2022-08-25T01:04:55.497Z,24.31
2022-08-25T01:05:55.464Z,24.31
2022-08-25T01:06:55.459Z,24.30
2022-08-25T01:07:57.485Z,24.30
2022-08-25T01:08:55.433Z,24.31
2022-08-25T01:09:55.443Z,24.30
2022-08-25T01:10:55.415Z,24.28
2022-08-25T01:11:55.395Z,24.28
2022-08-25T01:12:55.396Z,24.27
2022-08-25T01:15:19.998Z,24.27
2022-08-25T01:16:06.037Z,24.27
2022-08-25T01:17:05.995Z,24.27
2022-08-25T01:18:06.114Z,24.27
2022-08-25T01:19:05.981Z,24.25
2022-08-25T01:20:05.999Z,24.27
2022-08-25T01:21:05.949Z,24.27
2022-08-25T01:22:05.939Z,24.25
2022-08-25T01:23:05.929Z,24.27
2022-08-25T01:24:05.921Z,24.25
2022-08-25T01:25:05.919Z,24.27
2022-08-25T01:26:05.902Z,24.27
2022-08-25T01:27:05.880Z,24.25
2022-08-25T01:28:06.014Z,24.25
2022-08-25T01:29:05.861Z,24.25
2022-08-25T01:30:05.873Z,24.25
2022-08-25T01:31:23.989Z,24.25
2022-08-25T01:32:06.832Z,24.24
2022-08-25T01:33:05.814Z,24.24
2022-08-25T01:34:05.812Z,24.24
2022-08-25T01:35:05.806Z,24.24
2022-08-25T01:36:05.796Z,24.25
2022-08-25T01:37:05.786Z,24.22
2022-08-25T01:38:05.928Z,24.24
2022-08-25T01:39:05.747Z,24.22
2022-08-25T01:40:05.818Z,24.22
2022-08-25T01:41:05.718Z,24.21
2022-08-25T01:42:05.724Z,24.20
2022-08-25T01:43:05.696Z,24.22
2022-08-25T01:44:05.707Z,24.21
2022-08-25T01:45:05.676Z,24.22
2022-08-25T01:46:05.757Z,24.21
2022-08-25T01:47:05.666Z,24.21
2022-08-25T01:48:05.736Z,24.21
2022-08-25T01:49:06.893Z,24.20
2022-08-25T01:50:05.650Z,24.21
2022-08-25T01:51:05.616Z,24.21
2022-08-25T01:52:05.609Z,24.20
2022-08-25T01:53:05.592Z,24.21
2022-08-25T01:54:05.613Z,24.20
2022-08-25T01:55:05.571Z,24.20
2022-08-25T01:56:05.565Z,24.21
2022-08-25T01:57:05.551Z,24.20
2022-08-25T01:58:05.667Z,24.21
2022-08-25T01:59:05.545Z,24.20
2022-08-25T02:00:06.294Z,24.18
2022-08-25T02:01:05.546Z,24.20
2022-08-25T02:02:05.659Z,24.20
2022-08-25T02:03:06.335Z,24.21
2022-08-25T02:04:06.495Z,24.20
2022-08-25T02:05:05.467Z,24.20
2022-08-25T02:06:05.455Z,24.20
2022-08-25T02:07:05.440Z,24.18
2022-08-25T02:08:06.291Z,24.20
2022-08-25T02:09:05.418Z,24.18
2022-08-25T02:11:37.696Z,24.18
2022-08-25T02:12:38.459Z,24.18
2022-08-25T02:13:38.429Z,24.18
2022-08-25T02:14:37.899Z,24.18
2022-08-25T02:15:38.429Z,24.18
2022-08-25T02:16:38.451Z,24.18
2022-08-25T02:17:37.622Z,24.16
2022-08-25T02:18:38.370Z,24.16
2022-08-25T02:19:37.601Z,24.15
2022-08-25T02:20:37.590Z,24.15
2022-08-25T02:21:37.581Z,24.15
2022-08-25T02:22:38.355Z,24.16
2022-08-25T02:23:37.572Z,24.15
2022-08-25T02:24:37.550Z,24.13
2022-08-25T02:25:37.534Z,24.13
2022-08-25T02:26:37.515Z,24.13
2022-08-25T02:27:37.544Z,24.13
2022-08-25T02:28:37.496Z,24.13
2022-08-25T02:29:37.487Z,24.13
2022-08-25T02:30:37.518Z,24.12
2022-08-25T02:31:37.466Z,24.12
2022-08-25T02:32:37.465Z,24.12
2022-08-25T02:33:37.447Z,24.10
2022-08-25T02:34:37.419Z,24.13
2022-08-25T02:35:37.420Z,24.12
2022-08-25T02:36:37.399Z,24.13
2022-08-25T02:37:37.407Z,24.10
2022-08-25T02:38:37.379Z,24.12
2022-08-25T02:39:37.369Z,24.10
2022-08-25T02:40:37.360Z,24.10
2022-08-25T02:41:37.351Z,24.10
2022-08-25T02:42:37.350Z,24.10
2022-08-25T02:43:37.321Z,24.09
2022-08-25T02:44:37.309Z,24.10
2022-08-25T02:45:37.364Z,24.10
2022-08-25T02:46:37.289Z,24.10
2022-08-25T02:47:37.328Z,24.09
2022-08-25T02:48:37.263Z,24.09
2022-08-25T02:49:37.263Z,24.09
2022-08-25T02:50:37.247Z,24.09
2022-08-25T02:51:37.235Z,24.09
2022-08-25T02:52:37.236Z,24.08
2022-08-25T02:53:37.215Z,24.09
2022-08-25T02:54:37.195Z,24.08
2022-08-25T02:55:37.194Z,24.08
2022-08-25T02:56:37.166Z,24.09
2022-08-25T02:57:37.183Z,24.09
2022-08-25T02:58:37.146Z,24.08
2022-08-25T02:59:37.145Z,24.06
2022-08-25T03:00:37.126Z,24.08
2022-08-25T03:01:37.170Z,24.08
2022-08-25T03:02:37.118Z,24.08
2022-08-25T03:03:39.423Z,24.06
2022-08-25T03:04:37.116Z,24.06
2022-08-25T03:05:37.077Z,24.08
2022-08-25T03:06:37.062Z,24.08
2022-08-25T03:07:37.069Z,24.06
2022-08-25T03:08:37.043Z,24.05
2022-08-25T03:09:37.031Z,24.08
2022-08-25T03:10:37.011Z,24.08
2022-08-25T03:11:37.012Z,24.05
2022-08-25T03:12:37.012Z,24.06
2022-08-25T03:13:36.983Z,24.06
2022-08-25T03:14:36.969Z,24.06
2022-08-25T03:15:36.963Z,24.06
2022-08-25T03:16:36.980Z,24.05
2022-08-25T03:17:36.933Z,24.05
2022-08-25T03:18:36.935Z,24.05
2022-08-25T03:19:36.914Z,24.05
2022-08-25T03:20:36.909Z,24.05
2022-08-25T03:21:36.895Z,24.05
2022-08-25T03:22:36.875Z,24.03
2022-08-25T03:23:36.886Z,24.02
2022-08-25T03:24:36.854Z,24.02
2022-08-25T03:25:36.858Z,24.02
2022-08-25T03:26:36.835Z,24.02
2022-08-25T03:27:36.825Z,24.00
2022-08-25T03:28:36.825Z,24.02
2022-08-25T03:29:36.798Z,24.00
2022-08-25T03:30:36.779Z,23.98
2022-08-25T03:31:36.818Z,23.98
2022-08-25T03:32:36.759Z,24.00
2022-08-25T03:33:36.773Z,23.98
2022-08-25T03:34:36.741Z,23.98
2022-08-25T03:35:36.730Z,23.98
2022-08-25T03:36:36.716Z,23.98
2022-08-25T03:37:36.712Z,23.97
2022-08-25T03:38:36.711Z,23.97
2022-08-25T03:39:36.682Z,23.97
2022-08-25T03:40:36.672Z,23.95
2022-08-25T03:41:36.663Z,23.97
2022-08-25T03:42:36.654Z,23.95
2022-08-25T03:43:36.673Z,23.97
2022-08-25T03:44:36.624Z,23.95
2022-08-25T03:45:36.647Z,23.97
2022-08-25T03:46:36.605Z,23.97
2022-08-25T03:47:36.596Z,23.97
2022-08-25T03:48:36.605Z,23.95
2022-08-25T03:49:36.574Z,23.95
2022-08-25T03:50:36.554Z,23.95
2022-08-25T03:51:36.547Z,23.97
2022-08-25T03:52:40.342Z,23.94
2022-08-25T03:53:37.547Z,23.95
2022-08-25T03:54:36.507Z,23.94
2022-08-25T03:55:36.500Z,23.95
2022-08-25T03:56:36.478Z,23.95
2022-08-25T03:57:36.487Z,23.95
2022-08-25T03:58:36.488Z,23.94
2022-08-25T03:59:36.459Z,23.94
2022-08-25T04:00:36.440Z,23.95
2022-08-25T04:01:36.486Z,23.94
2022-08-25T04:02:36.477Z,23.94
2022-08-25T04:03:36.430Z,23.95
2022-08-25T04:04:36.401Z,23.95
2022-08-25T04:05:36.390Z,23.94
2022-08-25T04:06:36.371Z,23.94
2022-08-25T04:07:36.362Z,23.94
2022-08-25T04:08:36.371Z,23.94
2022-08-25T04:09:36.992Z,23.94
2022-08-25T04:10:36.323Z,23.93
2022-08-25T04:11:36.324Z,23.94
2022-08-25T04:12:36.303Z,23.94
2022-08-25T04:13:36.314Z,23.94
2022-08-25T04:14:36.275Z,23.94
2022-08-25T04:15:36.274Z,23.94
2022-08-25T04:16:36.320Z,23.94
2022-08-25T04:17:36.267Z,23.94
2022-08-25T04:18:36.234Z,23.91
2022-08-25T04:19:36.227Z,23.93
2022-08-25T04:20:36.209Z,23.93
2022-08-25T04:21:36.206Z,23.93
2022-08-25T04:22:36.705Z,23.93
2022-08-25T04:23:36.188Z,23.93
2022-08-25T04:24:36.167Z,23.93
2022-08-25T04:25:36.162Z,23.93
2022-08-25T04:26:36.147Z,23.91
2022-08-25T04:27:36.159Z,23.93
2022-08-25T04:28:36.125Z,23.91
2022-08-25T04:29:36.118Z,23.91
2022-08-25T04:30:36.098Z,23.91
2022-08-25T04:31:36.152Z,23.91
2022-08-25T04:32:36.081Z,23.90
2022-08-25T04:33:36.069Z,23.90
2022-08-25T04:34:36.040Z,23.90
2022-08-25T04:35:36.028Z,23.90
2022-08-25T04:36:36.012Z,23.91
2022-08-25T04:37:36.024Z,23.90
2022-08-25T04:38:36.015Z,23.88
2022-08-25T04:39:35.992Z,23.90
2022-08-25T04:40:36.041Z,23.88
2022-08-25T04:41:35.965Z,23.90
2022-08-25T04:42:35.974Z,23.87
2022-08-25T04:43:35.955Z,23.88
2022-08-25T04:44:35.966Z,23.87
2022-08-25T04:45:35.973Z,23.87
2022-08-25T04:46:35.924Z,23.87
2022-08-25T04:47:35.916Z,23.87
2022-08-25T04:48:35.906Z,23.85
2022-08-25T04:49:35.881Z,23.87
2022-08-25T04:50:35.877Z,23.87
2022-08-25T04:51:35.857Z,23.85
2022-08-25T04:52:35.867Z,23.85
2022-08-25T04:53:35.829Z,23.85
2022-08-25T04:54:37.120Z,23.85
2022-08-25T04:55:35.825Z,23.84
2022-08-25T04:56:35.810Z,23.84
2022-08-25T04:57:35.810Z,23.84
2022-08-25T04:58:35.782Z,23.84
2022-08-25T04:59:35.766Z,23.84
2022-08-25T05:00:35.822Z,23.85
2022-08-25T05:01:35.746Z,23.84
2022-08-25T05:02:35.753Z,23.85
2022-08-25T05:03:35.722Z,23.85
2022-08-25T05:04:35.779Z,23.84
2022-08-25T05:05:35.694Z,23.84
2022-08-25T05:06:35.694Z,23.84
2022-08-25T05:07:35.709Z,23.84
2022-08-25T05:08:35.683Z,23.84
2022-08-25T05:09:35.652Z,23.84
2022-08-25T05:10:35.646Z,23.84
2022-08-25T05:11:35.646Z,23.84
2022-08-25T05:12:35.634Z,23.84
2022-08-25T05:13:35.609Z,23.84
2022-08-25T05:14:35.606Z,23.84
2022-08-25T05:15:35.593Z,23.84
2022-08-25T05:16:35.621Z,23.85
2022-08-25T05:17:35.573Z,23.85
2022-08-25T05:18:35.558Z,23.84
2022-08-25T05:19:35.539Z,23.85
2022-08-25T05:20:35.551Z,23.85
2022-08-25T05:21:35.529Z,23.85
2022-08-25T05:22:35.513Z,23.87
2022-08-25T05:23:35.498Z,23.84
2022-08-25T05:24:35.493Z,23.85
2022-08-25T05:25:35.470Z,23.84
2022-08-25T05:26:35.479Z,23.85
2022-08-25T05:27:35.451Z,23.87
2022-08-25T05:28:35.463Z,23.85
2022-08-25T05:29:35.425Z,23.87
2022-08-25T05:30:35.423Z,23.85
2022-08-25T05:31:38.466Z,23.87
2022-08-25T05:32:36.394Z,23.87
2022-08-25T05:33:35.386Z,23.88
2022-08-25T05:34:35.375Z,23.87
2022-08-25T05:35:35.355Z,23.88
2022-08-25T05:36:35.371Z,23.87
2022-08-25T05:37:35.336Z,23.88
2022-08-25T05:38:35.328Z,23.87
2022-08-25T05:39:35.318Z,23.87
2022-08-25T05:40:35.325Z,23.87
2022-08-25T05:41:35.325Z,23.87
2022-08-25T05:42:35.287Z,23.87
2022-08-25T05:43:35.268Z,23.87
2022-08-25T05:44:35.269Z,23.87
2022-08-25T05:45:35.290Z,23.88
2022-08-25T05:46:35.274Z,23.88
2022-08-25T05:47:35.220Z,23.88
2022-08-25T05:48:35.220Z,23.88
2022-08-25T05:49:35.201Z,23.87
2022-08-25T05:50:35.196Z,23.88
2022-08-25T05:51:35.200Z,23.88
2022-08-25T05:52:35.170Z,23.88
2022-08-25T05:53:35.152Z,23.88
2022-08-25T05:54:35.155Z,23.90
2022-08-25T05:55:35.133Z,23.88
2022-08-25T05:56:35.174Z,23.90
2022-08-25T05:57:35.113Z,23.91
2022-08-25T05:58:35.104Z,23.90
2022-08-25T05:59:35.093Z,23.90
2022-08-25T06:00:35.084Z,23.90
2022-08-25T06:01:35.085Z,23.90
2022-08-25T06:02:35.056Z,23.90
2022-08-25T06:03:35.067Z,23.90
2022-08-25T06:04:38.499Z,23.88
2022-08-25T06:05:36.017Z,23.90
2022-08-25T06:06:35.027Z,23.91
2022-08-25T06:07:34.996Z,23.91
2022-08-25T06:08:34.996Z,23.91
2022-08-25T06:09:34.978Z,23.91
2022-08-25T06:10:34.970Z,23.91
2022-08-25T06:11:34.968Z,23.90
2022-08-25T06:12:34.952Z,23.91
2022-08-25T06:13:34.942Z,23.91
2022-08-25T06:14:34.921Z,23.91
2022-08-25T06:15:34.900Z,23.91
2022-08-25T06:16:35.476Z,23.91
2022-08-25T06:17:34.881Z,23.91
2022-08-25T06:18:34.871Z,23.90
2022-08-25T06:19:34.853Z,23.90
2022-08-25T06:20:34.850Z,23.87
2022-08-25T06:21:34.843Z,23.85
2022-08-25T06:22:34.831Z,23.87
2022-08-25T06:23:34.813Z,23.85
2022-08-25T06:24:34.804Z,23.84
2022-08-25T06:25:34.794Z,23.84
2022-08-25T06:26:34.804Z,23.85
2022-08-25T06:27:34.766Z,23.85
2022-08-25T06:28:34.767Z,23.85
2022-08-25T06:29:34.753Z,23.85
2022-08-25T06:30:34.736Z,23.87
2022-08-25T06:31:34.891Z,23.87
2022-08-25T06:32:34.718Z,23.85
2022-08-25T06:33:34.698Z,23.87
2022-08-25T06:34:34.703Z,23.87
2022-08-25T06:35:34.677Z,23.87
2022-08-25T06:36:34.687Z,23.85
2022-08-25T06:37:34.660Z,23.87
2022-08-25T06:38:34.650Z,23.87
2022-08-25T06:39:34.632Z,23.87
2022-08-25T06:40:34.647Z,23.87
2022-08-25T06:41:37.007Z,23.85
2022-08-25T06:42:34.600Z,23.85
2022-08-25T06:43:34.591Z,23.87
2022-08-25T06:44:34.581Z,23.87
2022-08-25T06:45:34.573Z,23.85
2022-08-25T06:46:36.539Z,23.87
2022-08-25T06:47:34.543Z,23.88
2022-08-25T06:48:34.533Z,23.87
2022-08-25T06:49:36.203Z,23.87
2022-08-25T06:50:34.532Z,23.87
2022-08-25T06:51:34.496Z,23.88
2022-08-25T06:52:34.495Z,23.88
2022-08-25T06:53:34.474Z,23.87
2022-08-25T06:54:34.465Z,23.87
2022-08-25T06:55:34.466Z,23.88
2022-08-25T06:56:34.448Z,23.88
2022-08-25T06:57:34.427Z,23.90
2022-08-25T06:58:34.417Z,23.88
2022-08-25T06:59:34.407Z,23.88
2022-08-25T07:00:34.456Z,23.90
2022-08-25T07:01:34.436Z,23.88
2022-08-25T07:02:35.388Z,23.91
2022-08-25T07:03:34.359Z,23.90
2022-08-25T07:04:34.369Z,23.90
2022-08-25T07:05:44.091Z,23.90
2022-08-25T07:06:35.359Z,23.90
2022-08-25T07:07:43.640Z,23.91
2022-08-25T07:08:35.310Z,23.91
2022-08-25T07:09:37.405Z,23.93
2022-08-25T07:10:34.303Z,23.91
2022-08-25T07:11:34.274Z,23.91
2022-08-25T07:12:34.264Z,23.91
2022-08-25T07:13:34.246Z,23.93
2022-08-25T07:14:34.234Z,23.93
2022-08-25T07:15:34.233Z,23.93
2022-08-25T07:16:34.269Z,23.94
2022-08-25T07:17:34.204Z,23.93
2022-08-25T07:18:34.206Z,23.93
2022-08-25T07:19:34.184Z,23.94
2022-08-25T07:20:34.188Z,23.94
2022-08-25T07:21:35.615Z,23.94
2022-08-25T07:22:34.146Z,23.93
2022-08-25T07:23:34.125Z,23.95
2022-08-25T07:24:34.127Z,23.94
2022-08-25T07:25:34.127Z,23.95
2022-08-25T07:26:37.804Z,23.95
2022-08-25T07:27:34.086Z,23.95
2022-08-25T07:28:34.090Z,23.95
2022-08-25T07:29:34.059Z,23.95
2022-08-25T07:30:34.069Z,23.95
2022-08-25T07:31:34.081Z,23.97
2022-08-25T07:32:34.050Z,23.95
2022-08-25T07:33:34.020Z,23.98
2022-08-25T07:34:34.013Z,23.97
2022-08-25T07:35:37.515Z,23.97
2022-08-25T07:36:33.989Z,23.98
2022-08-25T07:37:49.998Z,23.97
2022-08-25T07:38:34.970Z,23.97
2022-08-25T07:39:33.951Z,23.98
2022-08-25T07:40:34.037Z,23.98
2022-08-25T07:41:33.925Z,24.00
2022-08-25T07:42:33.914Z,23.97
2022-08-25T07:43:33.904Z,23.98
2022-08-25T07:44:33.915Z,23.98
2022-08-25T07:45:33.883Z,24.00
2022-08-25T07:46:33.922Z,24.02
2022-08-25T07:47:33.856Z,24.00
2022-08-25T07:48:33.847Z,24.00
2022-08-25T07:49:35.811Z,24.00
2022-08-25T07:50:34.828Z,24.02
2022-08-25T07:51:33.817Z,24.02
2022-08-25T07:52:33.809Z,24.02
2022-08-25T07:53:33.787Z,24.00
2022-08-25T07:54:34.044Z,24.03
2022-08-25T07:55:33.768Z,24.03
2022-08-25T07:56:33.759Z,24.03
2022-08-25T07:57:33.748Z,24.03
2022-08-25T07:58:33.739Z,24.03
2022-08-25T07:59:39.452Z,24.05
2022-08-25T08:00:36.003Z,24.05
2022-08-25T08:01:33.745Z,24.03
2022-08-25T08:02:33.742Z,24.06
2022-08-25T08:03:50.149Z,24.03
2022-08-25T08:04:34.718Z,24.05
2022-08-25T08:05:33.667Z,24.06
2022-08-25T08:06:33.643Z,24.05
2022-08-25T08:07:42.270Z,24.03
2022-08-25T08:08:34.640Z,24.05
2022-08-25T08:09:33.637Z,24.06
2022-08-25T08:10:53.951Z,24.05
2022-08-25T08:11:34.601Z,24.06
2022-08-25T08:12:33.575Z,24.05
2022-08-25T08:13:35.742Z,24.05
2022-08-25T08:14:34.566Z,24.05
2022-08-25T08:15:33.547Z,24.05
2022-08-25T08:16:33.631Z,24.05
2022-08-25T08:17:33.516Z,24.06
2022-08-25T08:18:33.508Z,24.08
2022-08-25T08:19:33.507Z,24.06
2022-08-25T08:20:42.511Z,24.08
2022-08-25T08:21:34.468Z,24.08
2022-08-25T08:22:33.477Z,24.08
2022-08-25T08:23:33.448Z,24.09
2022-08-25T08:24:44.720Z,24.09
2022-08-25T08:25:34.440Z,24.10
2022-08-25T08:26:55.390Z,24.10
2022-08-25T08:27:34.408Z,24.10
2022-08-25T08:28:33.407Z,24.10
2022-08-25T08:29:33.400Z,24.10
2022-08-25T08:30:34.052Z,24.10
2022-08-25T08:31:33.432Z,24.13
2022-08-25T08:32:53.303Z,24.13
2022-08-25T08:33:40.903Z,24.15
2022-08-25T08:34:34.344Z,24.13
2022-08-25T08:35:33.312Z,24.13
2022-08-25T08:36:33.306Z,24.15
2022-08-25T08:37:33.320Z,24.15
2022-08-25T08:38:33.306Z,24.13
2022-08-25T08:39:33.283Z,24.16
2022-08-25T08:40:33.332Z,24.15
2022-08-25T08:41:40.077Z,24.18
2022-08-25T08:42:34.236Z,24.16
2022-08-25T08:43:33.542Z,24.18
2022-08-25T08:44:33.228Z,24.18
2022-08-25T08:45:35.403Z,24.20
2022-08-25T08:46:34.244Z,24.18
2022-08-25T08:47:33.197Z,24.16
2022-08-25T08:48:33.176Z,24.20
2022-08-25T08:49:33.178Z,24.20
2022-08-25T08:50:33.475Z,24.20
2022-08-25T08:51:33.426Z,24.20
2022-08-25T08:52:33.140Z,24.22
2022-08-25T08:53:34.259Z,24.21
2022-08-25T08:54:34.210Z,24.21
2022-08-25T08:55:33.090Z,24.21
2022-08-25T08:56:33.070Z,24.24
2022-08-25T08:57:33.061Z,24.24
2022-08-25T08:58:33.051Z,24.24
2022-08-25T08:59:33.073Z,24.25
2022-08-25T09:00:33.023Z,24.24
2022-08-25T09:01:33.402Z,24.25
2022-08-25T09:02:39.501Z,24.25
2022-08-25T09:03:34.048Z,24.25
2022-08-25T09:04:33.006Z,24.27
2022-08-25T09:05:34.460Z,24.27
2022-08-25T09:06:33.964Z,24.27
2022-08-25T09:07:32.958Z,24.28
2022-08-25T09:08:32.985Z,24.27
2022-08-25T09:09:35.837Z,24.28
2022-08-25T09:10:32.915Z,24.28
2022-08-25T09:11:32.907Z,24.30
2022-08-25T09:12:33.553Z,24.30
2022-08-25T09:13:32.899Z,24.30
2022-08-25T09:14:32.869Z,24.31
2022-08-25T09:15:32.903Z,24.31
2022-08-25T09:16:34.803Z,24.32
2022-08-25T09:17:32.839Z,24.32
2022-08-25T09:18:32.836Z,24.34
2022-08-25T09:19:32.818Z,24.35
2022-08-25T09:20:33.579Z,24.35
2022-08-25T09:21:32.790Z,24.35
2022-08-25T09:22:35.497Z,24.35
2022-08-25T09:23:32.790Z,24.35
2022-08-25T09:24:32.752Z,24.35
2022-08-25T09:25:52.438Z,24.37
2022-08-25T09:26:33.732Z,24.39
2022-08-25T09:27:32.722Z,24.39
2022-08-25T09:28:32.722Z,24.39
2022-08-25T09:31:06.381Z,24.39
2022-08-25T09:31:43.413Z,24.39
2022-08-25T09:32:48.855Z,24.42
2022-08-25T09:33:45.070Z,24.42
2022-08-25T09:34:43.301Z,24.40
2022-08-25T09:35:43.299Z,24.42
2022-08-25T09:36:43.279Z,24.43
2022-08-25T09:37:43.272Z,24.43
2022-08-25T09:38:43.263Z,24.43
2022-08-25T09:39:43.254Z,24.45
2022-08-25T09:40:43.222Z,24.45
2022-08-25T09:41:43.233Z,24.43
2022-08-25T09:42:43.202Z,24.43
2022-08-25T09:43:43.212Z,24.43
2022-08-25T09:44:43.213Z,24.45
2022-08-25T09:45:43.175Z,24.46
2022-08-25T09:46:43.251Z,24.45
2022-08-25T09:47:43.144Z,24.45
2022-08-25T09:48:43.147Z,24.46
2022-08-25T09:49:43.125Z,24.46
2022-08-25T09:50:46.672Z,24.46
2022-08-25T09:51:43.450Z,24.47
2022-08-25T09:52:43.109Z,24.47
2022-08-25T09:53:43.117Z,24.47
2022-08-25T09:54:44.280Z,24.49
2022-08-25T09:55:43.059Z,24.46
2022-08-25T09:56:43.049Z,24.47
2022-08-25T09:57:43.081Z,24.49
2022-08-25T09:58:43.020Z,24.49
2022-08-25T09:59:57.309Z,24.49
2022-08-25T10:00:44.008Z,24.50
2022-08-25T10:01:43.051Z,24.50
2022-08-25T10:02:43.228Z,24.50
2022-08-25T10:03:42.960Z,24.50
2022-08-25T10:04:42.955Z,24.52
2022-08-25T10:05:42.968Z,24.52
2022-08-25T10:06:42.945Z,24.52
2022-08-25T10:07:42.942Z,24.55
2022-08-25T10:08:42.926Z,24.53
2022-08-25T10:09:42.913Z,24.53
2022-08-25T10:10:42.884Z,24.53
2022-08-25T10:11:42.901Z,24.55
2022-08-25T10:12:43.134Z,24.55
2022-08-25T10:13:42.854Z,24.53
2022-08-25T10:14:44.416Z,24.55
2022-08-25T10:15:42.850Z,24.57
2022-08-25T10:16:42.844Z,24.55
2022-08-25T10:17:42.826Z,24.55
2022-08-25T10:18:42.901Z,24.58
2022-08-25T10:19:43.977Z,24.57
2022-08-25T10:20:44.460Z,24.57
2022-08-25T10:21:42.767Z,24.57
2022-08-25T10:22:42.768Z,24.57
2022-08-25T10:23:42.739Z,24.58
2022-08-25T10:24:43.918Z,24.57
2022-08-25T10:25:42.749Z,24.58
2022-08-25T10:26:43.711Z,24.60
2022-08-25T10:27:42.710Z,24.60
2022-08-25T10:28:42.681Z,24.60
2022-08-25T10:29:42.672Z,24.60
2022-08-25T10:30:43.469Z,24.60
2022-08-25T10:31:42.659Z,24.61
2022-08-25T10:32:42.642Z,24.62
2022-08-25T10:33:43.401Z,24.61
2022-08-25T10:34:44.589Z,24.61
2022-08-25T10:35:42.603Z,24.62
2022-08-25T10:36:42.604Z,24.62
2022-08-25T10:37:42.595Z,24.62
2022-08-25T10:38:43.041Z,24.64
2022-08-25T10:39:42.564Z,24.64
2022-08-25T10:40:42.574Z,24.64
2022-08-25T10:41:42.542Z,24.64
2022-08-25T10:42:43.485Z,24.64
2022-08-25T10:43:42.947Z,24.65
2022-08-25T10:44:42.495Z,24.64
2022-08-25T10:45:42.746Z,24.65
2022-08-25T10:46:42.528Z,24.67
2022-08-25T10:47:42.616Z,24.67
2022-08-25T10:48:42.454Z,24.65
2022-08-25T10:49:42.454Z,24.67
2022-08-25T10:50:45.343Z,24.67
2022-08-25T10:51:42.435Z,24.65
2022-08-25T10:52:42.422Z,24.68
2022-08-25T10:53:42.400Z,24.68
2022-08-25T10:54:42.388Z,24.67
2022-08-25T10:55:42.842Z,24.69
2022-08-25T10:56:42.351Z,24.68
2022-08-25T10:57:42.380Z,24.69
2022-08-25T10:58:42.332Z,24.71
2022-08-25T10:59:42.330Z,24.73
2022-08-25T11:00:48.231Z,24.76
2022-08-25T11:01:44.695Z,24.76
2022-08-25T11:02:42.303Z,24.77
2022-08-25T11:03:42.284Z,24.76
2022-08-25T11:04:42.350Z,24.77
2022-08-25T11:05:42.255Z,24.77
2022-08-25T11:06:42.244Z,24.77
2022-08-25T11:07:42.245Z,24.78
2022-08-25T11:08:42.214Z,24.77
2022-08-25T11:09:42.217Z,24.78
2022-08-25T11:10:42.198Z,24.78
2022-08-25T11:11:42.188Z,24.78
2022-08-25T11:12:42.187Z,24.80
2022-08-25T11:13:42.167Z,24.81
2022-08-25T11:14:42.168Z,24.78
2022-08-25T11:15:54.844Z,24.77
2022-08-25T11:16:43.148Z,24.80
2022-08-25T11:17:42.139Z,24.78
2022-08-25T11:18:42.114Z,24.80
2022-08-25T11:19:42.100Z,24.80
2022-08-25T11:20:42.080Z,24.80
2022-08-25T11:21:42.082Z,24.80
2022-08-25T11:22:42.079Z,24.80
2022-08-25T11:23:42.061Z,24.81
2022-08-25T11:24:42.040Z,24.80
2022-08-25T11:25:42.033Z,24.80
2022-08-25T11:26:42.012Z,24.78
2022-08-25T11:27:42.763Z,24.81
2022-08-25T11:28:42.022Z,24.81
2022-08-25T11:29:42.763Z,24.80
2022-08-25T11:30:42.000Z,24.81
2022-08-25T11:31:41.963Z,24.81
2022-08-25T11:32:41.966Z,24.83
2022-08-25T11:33:41.935Z,24.81
2022-08-25T11:34:43.432Z,24.83
2022-08-25T11:35:41.925Z,24.81
2022-08-25T11:36:41.906Z,24.81
2022-08-25T11:37:41.906Z,24.83
2022-08-25T11:38:42.787Z,24.83
2022-08-25T11:39:42.866Z,24.84
2022-08-25T11:40:41.857Z,24.84
2022-08-25T11:41:41.847Z,24.83
2022-08-25T11:42:41.868Z,24.84
2022-08-25T11:43:41.826Z,24.84
2022-08-25T11:44:53.409Z,24.84
2022-08-25T11:45:42.846Z,24.84
2022-08-25T11:46:42.739Z,24.85
2022-08-25T11:47:43.250Z,24.85
2022-08-25T11:48:42.550Z,24.84
2022-08-25T11:49:41.768Z,24.84
2022-08-25T11:50:41.741Z,24.87
2022-08-25T11:51:42.522Z,24.84
2022-08-25T11:52:42.481Z,24.85
2022-08-25T11:53:42.112Z,24.87
2022-08-25T11:54:41.800Z,24.87
2022-08-25T11:55:41.693Z,24.87
2022-08-25T11:56:41.681Z,24.88
2022-08-25T11:57:41.683Z,24.87
2022-08-25T11:58:42.434Z,24.88
2022-08-25T11:59:41.644Z,24.87
2022-08-25T12:00:42.407Z,24.88
2022-08-25T12:01:41.645Z,24.88
2022-08-25T12:02:42.606Z,24.90
2022-08-25T12:03:42.372Z,24.88
2022-08-25T12:04:45.015Z,24.88
2022-08-25T12:05:41.612Z,24.91
2022-08-25T12:06:41.567Z,24.90
2022-08-25T12:07:41.558Z,24.90
2022-08-25T12:08:41.609Z,24.91
2022-08-25T12:09:41.539Z,24.90
2022-08-25T12:10:41.519Z,24.91
2022-08-25T12:11:41.670Z,24.91
2022-08-25T12:12:41.503Z,24.91
2022-08-25T12:13:41.480Z,24.91
2022-08-25T12:14:41.481Z,24.91
2022-08-25T12:15:41.469Z,24.93
2022-08-25T12:16:41.510Z,24.91
2022-08-25T12:17:41.451Z,24.91
2022-08-25T12:18:45.642Z,24.93
2022-08-25T12:19:41.421Z,24.91
2022-08-25T12:20:41.403Z,24.91
2022-08-25T12:21:41.415Z,24.93
2022-08-25T12:22:41.402Z,24.91
2022-08-25T12:23:44.900Z,24.95
2022-08-25T12:24:41.355Z,24.95
2022-08-25T12:25:43.607Z,24.95
2022-08-25T12:26:41.354Z,24.95
2022-08-25T12:27:41.477Z,24.95
2022-08-25T12:28:41.315Z,24.96
2022-08-25T12:29:41.316Z,24.95
2022-08-25T12:30:41.314Z,24.96
2022-08-25T12:31:41.297Z,24.96
2022-08-25T12:32:41.269Z,24.96
2022-08-25T12:33:41.268Z,24.96
2022-08-25T12:34:42.698Z,24.96
2022-08-25T12:35:41.240Z,24.96
2022-08-25T12:36:41.979Z,24.98
2022-08-25T12:37:41.220Z,24.98
2022-08-25T12:38:43.684Z,24.98
2022-08-25T12:39:41.970Z,24.98
2022-08-25T12:40:41.182Z,24.96
2022-08-25T12:41:41.192Z,24.98
2022-08-25T12:42:41.174Z,24.96
2022-08-25T12:43:42.126Z,24.99
2022-08-25T12:44:41.140Z,24.99
2022-08-25T12:45:41.184Z,24.99
2022-08-25T12:46:41.112Z,24.99
2022-08-25T12:47:44.720Z,24.99
2022-08-25T12:48:41.097Z,24.99
2022-08-25T12:49:41.088Z,24.99
2022-08-25T12:50:41.084Z,24.99
2022-08-25T12:51:43.013Z,24.99
2022-08-25T12:52:42.044Z,24.99
2022-08-25T12:53:41.055Z,24.99
2022-08-25T12:54:41.025Z,25.00
2022-08-25T12:55:41.034Z,24.99
2022-08-25T12:56:41.004Z,24.99